sensor_id;sensor_type;location;lat;lon;timestamp;temperature;humidity
58363;DHT22;54977;51.510;7.522;2022-12-20T00:02:37;11.60;75.10
58363;DHT22;54977;51.510;7.522;2022-12-20T00:07:39;11.80;75.10
58363;DHT22;54977;51.510;7.522;2022-12-20T00:12:41;11.70;75.00
58363;DHT22;54977;51.510;7.522;2022-12-20T00:17:44;11.70;74.60
58363;DHT22;54977;51.510;7.522;2022-12-20T00:22:46;11.80;74.30
58363;DHT22;54977;51.510;7.522;2022-12-20T00:27:48;11.70;74.10
58363;DHT22;54977;51.510;7.522;2022-12-20T00:32:51;11.90;73.90
58363;DHT22;54977;51.510;7.522;2022-12-20T00:37:53;12.10;73.40
58363;DHT22;54977;51.510;7.522;2022-12-20T00:42:54;12.10;73.20
58363;DHT22;54977;51.510;7.522;2022-12-20T00:47:58;12.20;72.90
58363;DHT22;54977;51.510;7.522;2022-12-20T00:52:59;12.00;73.40
58363;DHT22;54977;51.510;7.522;2022-12-20T00:58:01;11.90;73.60
58363;DHT22;54977;51.510;7.522;2022-12-20T01:03:05;12.10;72.80
58363;DHT22;54977;51.510;7.522;2022-12-20T01:08:07;12.40;72.00
58363;DHT22;54977;51.510;7.522;2022-12-20T01:13:09;12.50;71.50
58363;DHT22;54977;51.510;7.522;2022-12-20T01:18:12;12.30;72.10
58363;DHT22;54977;51.510;7.522;2022-12-20T01:23:14;12.40;71.80
58363;DHT22;54977;51.510;7.522;2022-12-20T01:28:16;12.20;72.20
58363;DHT22;54977;51.510;7.522;2022-12-20T01:33:19;12.40;71.60
58363;DHT22;54977;51.510;7.522;2022-12-20T01:38:21;12.30;72.20
58363;DHT22;54977;51.510;7.522;2022-12-20T01:43:24;12.40;72.20
58363;DHT22;54977;51.510;7.522;2022-12-20T01:48:28;12.10;72.30
58363;DHT22;54977;51.510;7.522;2022-12-20T01:53:30;11.90;72.50
58363;DHT22;54977;51.510;7.522;2022-12-20T01:58:34;12.00;73.50
58363;DHT22;54977;51.510;7.522;2022-12-20T02:03:38;12.10;73.40
58363;DHT22;54977;51.510;7.522;2022-12-20T02:08:41;12.10;73.20
58363;DHT22;54977;51.510;7.522;2022-12-20T02:13:52;11.50;75.10
58363;DHT22;54977;51.510;7.522;2022-12-20T02:19:00;12.10;74.20
58363;DHT22;54977;51.510;7.522;2022-12-20T02:24:31;11.80;75.00
58363;DHT22;54977;51.510;7.522;2022-12-20T02:35:23;11.90;74.60
58363;DHT22;54977;51.510;7.522;2022-12-20T02:40:28;12.00;74.40
58363;DHT22;54977;51.510;7.522;2022-12-20T02:45:35;11.70;74.90
58363;DHT22;54977;51.510;7.522;2022-12-20T02:50:39;11.40;76.00
58363;DHT22;54977;51.510;7.522;2022-12-20T02:55:46;11.30;76.30
58363;DHT22;54977;51.510;7.522;2022-12-20T03:00:52;11.30;76.30
58363;DHT22;54977;51.510;7.522;2022-12-20T03:05:56;11.40;75.80
58363;DHT22;54977;51.510;7.522;2022-12-20T03:10:58;11.30;76.10
58363;DHT22;54977;51.510;7.522;2022-12-20T03:16:01;11.20;76.00
58363;DHT22;54977;51.510;7.522;2022-12-20T03:21:03;11.30;75.90
58363;DHT22;54977;51.510;7.522;2022-12-20T03:26:05;11.50;75.50
58363;DHT22;54977;51.510;7.522;2022-12-20T03:36:11;11.00;77.00
58363;DHT22;54977;51.510;7.522;2022-12-20T03:51:18;11.40;76.50
58363;DHT22;54977;51.510;7.522;2022-12-20T03:56:20;11.20;79.00
58363;DHT22;54977;51.510;7.522;2022-12-20T04:01:25;11.10;79.40
58363;DHT22;54977;51.510;7.522;2022-12-20T04:06:27;11.20;79.00
58363;DHT22;54977;51.510;7.522;2022-12-20T04:11:29;11.10;79.50
58363;DHT22;54977;51.510;7.522;2022-12-20T04:16:33;11.10;80.30
58363;DHT22;54977;51.510;7.522;2022-12-20T04:21:35;11.10;80.20
58363;DHT22;54977;51.510;7.522;2022-12-20T04:26:37;11.00;80.60
58363;DHT22;54977;51.510;7.522;2022-12-20T04:31:40;11.00;80.60
58363;DHT22;54977;51.510;7.522;2022-12-20T04:36:42;10.90;80.20
58363;DHT22;54977;51.510;7.522;2022-12-20T04:41:44;11.10;80.10
58363;DHT22;54977;51.510;7.522;2022-12-20T04:46:48;10.90;80.90
58363;DHT22;54977;51.510;7.522;2022-12-20T04:51:50;10.80;82.10
58363;DHT22;54977;51.510;7.522;2022-12-20T04:56:51;10.90;82.40
58363;DHT22;54977;51.510;7.522;2022-12-20T05:01:54;11.00;82.10
58363;DHT22;54977;51.510;7.522;2022-12-20T05:06:56;10.60;82.90
58363;DHT22;54977;51.510;7.522;2022-12-20T05:11:58;10.90;82.90
58363;DHT22;54977;51.510;7.522;2022-12-20T05:17:01;10.80;84.00
58363;DHT22;54977;51.510;7.522;2022-12-20T05:22:03;10.80;84.70
58363;DHT22;54977;51.510;7.522;2022-12-20T05:27:22;10.90;84.50
58363;DHT22;54977;51.510;7.522;2022-12-20T05:32:25;10.70;86.10
58363;DHT22;54977;51.510;7.522;2022-12-20T05:37:27;10.60;86.60
58363;DHT22;54977;51.510;7.522;2022-12-20T05:42:29;10.40;86.90
58363;DHT22;54977;51.510;7.522;2022-12-20T05:47:32;10.30;86.80
58363;DHT22;54977;51.510;7.522;2022-12-20T05:52:33;10.40;86.90
58363;DHT22;54977;51.510;7.522;2022-12-20T05:57:35;10.50;86.70
58363;DHT22;54977;51.510;7.522;2022-12-20T06:02:38;10.20;87.00
58363;DHT22;54977;51.510;7.522;2022-12-20T06:07:40;10.30;86.80
58363;DHT22;54977;51.510;7.522;2022-12-20T06:12:43;10.30;87.00
58363;DHT22;54977;51.510;7.522;2022-12-20T06:17:46;10.40;86.40
58363;DHT22;54977;51.510;7.522;2022-12-20T06:22:48;10.40;86.10
58363;DHT22;54977;51.510;7.522;2022-12-20T06:27:50;10.50;85.50
58363;DHT22;54977;51.510;7.522;2022-12-20T06:32:53;10.50;85.00
58363;DHT22;54977;51.510;7.522;2022-12-20T06:37:55;10.50;85.00
58363;DHT22;54977;51.510;7.522;2022-12-20T06:42:57;10.60;84.40
58363;DHT22;54977;51.510;7.522;2022-12-20T06:48:00;10.40;84.30
58363;DHT22;54977;51.510;7.522;2022-12-20T06:53:01;10.40;84.50
58363;DHT22;54977;51.510;7.522;2022-12-20T06:58:03;10.50;83.80
58363;DHT22;54977;51.510;7.522;2022-12-20T07:03:06;10.50;83.60
58363;DHT22;54977;51.510;7.522;2022-12-20T07:08:08;10.50;83.40
58363;DHT22;54977;51.510;7.522;2022-12-20T07:13:09;10.60;83.00
58363;DHT22;54977;51.510;7.522;2022-12-20T07:18:13;10.80;82.50
58363;DHT22;54977;51.510;7.522;2022-12-20T07:23:15;10.90;82.00
58363;DHT22;54977;51.510;7.522;2022-12-20T07:28:18;10.50;82.40
58363;DHT22;54977;51.510;7.522;2022-12-20T07:33:21;10.60;82.80
58363;DHT22;54977;51.510;7.522;2022-12-20T07:38:22;10.60;82.60
58363;DHT22;54977;51.510;7.522;2022-12-20T07:43:24;10.70;82.40
58363;DHT22;54977;51.510;7.522;2022-12-20T07:48:27;10.60;82.40
58363;DHT22;54977;51.510;7.522;2022-12-20T07:53:29;10.70;81.90
58363;DHT22;54977;51.510;7.522;2022-12-20T07:58:32;10.80;81.30
58363;DHT22;54977;51.510;7.522;2022-12-20T08:03:40;10.90;81.20
58363;DHT22;54977;51.510;7.522;2022-12-20T08:08:45;11.20;80.40
58363;DHT22;54977;51.510;7.522;2022-12-20T08:13:48;11.40;79.50
58363;DHT22;54977;51.510;7.522;2022-12-20T08:18:52;11.40;79.10
58363;DHT22;54977;51.510;7.522;2022-12-20T08:28:56;11.30;79.50
58363;DHT22;54977;51.510;7.522;2022-12-20T08:33:59;11.70;77.70
58363;DHT22;54977;51.510;7.522;2022-12-20T08:39:01;11.70;77.90
58363;DHT22;54977;51.510;7.522;2022-12-20T09:19:22;11.70;77.90
58363;DHT22;54977;51.510;7.522;2022-12-20T09:24:24;12.10;75.20
58363;DHT22;54977;51.510;7.522;2022-12-20T09:49:41;12.10;75.70
58363;DHT22;54977;51.510;7.522;2022-12-20T09:54:51;12.10;74.90
58363;DHT22;54977;51.510;7.522;2022-12-20T09:59:57;12.30;75.40
58363;DHT22;54977;51.510;7.522;2022-12-20T10:05:00;12.50;74.50
58363;DHT22;54977;51.510;7.522;2022-12-20T10:10:16;12.80;73.40
58363;DHT22;54977;51.510;7.522;2022-12-20T10:40:47;12.90;72.80
58363;DHT22;54977;51.510;7.522;2022-12-20T10:45:56;13.30;71.50
58363;DHT22;54977;51.510;7.522;2022-12-20T10:51:02;13.50;71.00
58363;DHT22;54977;51.510;7.522;2022-12-20T10:56:15;13.50;71.80
58363;DHT22;54977;51.510;7.522;2022-12-20T11:01:20;13.60;71.30
58363;DHT22;54977;51.510;7.522;2022-12-20T11:06:27;13.60;71.20
58363;DHT22;54977;51.510;7.522;2022-12-20T11:11:30;13.90;70.40
58363;DHT22;54977;51.510;7.522;2022-12-20T11:16:36;14.00;69.50
58363;DHT22;54977;51.510;7.522;2022-12-20T11:21:46;13.70;70.60
58363;DHT22;54977;51.510;7.522;2022-12-20T11:27:00;14.00;69.90
58363;DHT22;54977;51.510;7.522;2022-12-20T11:32:09;14.40;69.00
58363;DHT22;54977;51.510;7.522;2022-12-20T11:37:19;14.20;69.30
58363;DHT22;54977;51.510;7.522;2022-12-20T11:42:26;14.30;69.10
58363;DHT22;54977;51.510;7.522;2022-12-20T11:47:56;14.40;68.00
58363;DHT22;54977;51.510;7.522;2022-12-20T11:53:09;14.20;69.00
58363;DHT22;54977;51.510;7.522;2022-12-20T11:58:17;14.00;69.00
58363;DHT22;54977;51.510;7.522;2022-12-20T12:03:26;13.90;69.20
58363;DHT22;54977;51.510;7.522;2022-12-20T12:08:39;13.80;69.70
58363;DHT22;54977;51.510;7.522;2022-12-20T12:13:42;13.80;69.90
58363;DHT22;54977;51.510;7.522;2022-12-20T12:18:45;13.70;69.60
58363;DHT22;54977;51.510;7.522;2022-12-20T12:23:57;14.00;68.90
58363;DHT22;54977;51.510;7.522;2022-12-20T12:29:05;13.90;69.30
58363;DHT22;54977;51.510;7.522;2022-12-20T12:34:13;13.70;68.90
58363;DHT22;54977;51.510;7.522;2022-12-20T12:39:29;13.90;68.70
58363;DHT22;54977;51.510;7.522;2022-12-20T12:44:41;13.80;69.40
58363;DHT22;54977;51.510;7.522;2022-12-20T12:49:48;14.00;69.80
58363;DHT22;54977;51.510;7.522;2022-12-20T12:54:52;13.50;70.10
58363;DHT22;54977;51.510;7.522;2022-12-20T12:59:54;13.70;70.20
58363;DHT22;54977;51.510;7.522;2022-12-20T13:04:58;13.80;70.00
58363;DHT22;54977;51.510;7.522;2022-12-20T13:15:50;13.50;73.00
58363;DHT22;54977;51.510;7.522;2022-12-20T13:26:51;13.30;73.40
58363;DHT22;54977;51.510;7.522;2022-12-20T13:31:53;13.40;72.70
58363;DHT22;54977;51.510;7.522;2022-12-20T13:36:57;13.20;73.30
58363;DHT22;54977;51.510;7.522;2022-12-20T13:42:21;13.10;74.20
58363;DHT22;54977;51.510;7.522;2022-12-20T13:47:33;13.10;75.20
58363;DHT22;54977;51.510;7.522;2022-12-20T13:52:41;13.00;75.60
58363;DHT22;54977;51.510;7.522;2022-12-20T13:57:45;12.80;77.60
58363;DHT22;54977;51.510;7.522;2022-12-20T14:02:47;12.80;78.80
58363;DHT22;54977;51.510;7.522;2022-12-20T14:07:55;12.60;79.20
58363;DHT22;54977;51.510;7.522;2022-12-20T14:13:01;12.40;79.60
58363;DHT22;54977;51.510;7.522;2022-12-20T14:18:16;12.10;80.30
58363;DHT22;54977;51.510;7.522;2022-12-20T14:23:21;12.40;79.80
58363;DHT22;54977;51.510;7.522;2022-12-20T14:28:30;12.50;79.00
58363;DHT22;54977;51.510;7.522;2022-12-20T14:33:40;12.50;78.20
58363;DHT22;54977;51.510;7.522;2022-12-20T14:38:44;12.70;77.70
58363;DHT22;54977;51.510;7.522;2022-12-20T14:43:54;12.70;77.70
58363;DHT22;54977;51.510;7.522;2022-12-20T14:49:17;12.30;79.40
58363;DHT22;54977;51.510;7.522;2022-12-20T14:54:24;12.30;79.90
58363;DHT22;54977;51.510;7.522;2022-12-20T14:59:29;12.30;80.30
58363;DHT22;54977;51.510;7.522;2022-12-20T15:04:33;12.00;81.70
58363;DHT22;54977;51.510;7.522;2022-12-20T15:09:36;11.90;82.50
58363;DHT22;54977;51.510;7.522;2022-12-20T15:14:39;11.90;83.20
58363;DHT22;54977;51.510;7.522;2022-12-20T15:19:42;11.90;83.80
58363;DHT22;54977;51.510;7.522;2022-12-20T15:24:44;11.60;85.00
58363;DHT22;54977;51.510;7.522;2022-12-20T15:29:48;11.70;84.60
58363;DHT22;54977;51.510;7.522;2022-12-20T15:34:49;11.60;85.10
58363;DHT22;54977;51.510;7.522;2022-12-20T15:39:51;11.60;85.20
58363;DHT22;54977;51.510;7.522;2022-12-20T15:44:56;11.40;85.90
58363;DHT22;54977;51.510;7.522;2022-12-20T15:49:58;11.40;86.30
58363;DHT22;54977;51.510;7.522;2022-12-20T15:54:59;11.30;87.00
58363;DHT22;54977;51.510;7.522;2022-12-20T16:00:04;11.10;87.50
58363;DHT22;54977;51.510;7.522;2022-12-20T16:05:10;11.10;87.80
58363;DHT22;54977;51.510;7.522;2022-12-20T16:10:13;11.10;87.80
58363;DHT22;54977;51.510;7.522;2022-12-20T16:15:20;11.00;88.00
58363;DHT22;54977;51.510;7.522;2022-12-20T16:20:22;11.10;87.90
58363;DHT22;54977;51.510;7.522;2022-12-20T16:25:29;11.00;88.40
58363;DHT22;54977;51.510;7.522;2022-12-20T16:30:32;11.00;88.30
58363;DHT22;54977;51.510;7.522;2022-12-20T16:35:35;10.90;88.60
58363;DHT22;54977;51.510;7.522;2022-12-20T16:40:37;10.90;88.50
58363;DHT22;54977;51.510;7.522;2022-12-20T16:45:40;10.80;89.00
58363;DHT22;54977;51.510;7.522;2022-12-20T16:50:42;11.00;88.00
58363;DHT22;54977;51.510;7.522;2022-12-20T16:55:44;10.80;88.30
58363;DHT22;54977;51.510;7.522;2022-12-20T17:00:47;10.70;88.30
58363;DHT22;54977;51.510;7.522;2022-12-20T17:05:50;10.90;88.20
58363;DHT22;54977;51.510;7.522;2022-12-20T17:10:52;10.90;88.00
58363;DHT22;54977;51.510;7.522;2022-12-20T17:15:55;11.00;87.70
58363;DHT22;54977;51.510;7.522;2022-12-20T17:20:57;11.10;87.30
58363;DHT22;54977;51.510;7.522;2022-12-20T17:26:01;11.00;87.10
58363;DHT22;54977;51.510;7.522;2022-12-20T17:31:16;11.10;87.10
58363;DHT22;54977;51.510;7.522;2022-12-20T17:36:18;11.10;86.90
58363;DHT22;54977;51.510;7.522;2022-12-20T17:41:22;11.10;86.30
58363;DHT22;54977;51.510;7.522;2022-12-20T17:46:26;11.00;86.70
58363;DHT22;54977;51.510;7.522;2022-12-20T17:51:29;11.10;86.60
58363;DHT22;54977;51.510;7.522;2022-12-20T17:56:32;11.00;86.90
58363;DHT22;54977;51.510;7.522;2022-12-20T18:01:36;11.00;87.10
58363;DHT22;54977;51.510;7.522;2022-12-20T18:06:40;10.90;87.70
58363;DHT22;54977;51.510;7.522;2022-12-20T18:11:42;10.90;87.50
58363;DHT22;54977;51.510;7.522;2022-12-20T18:16:45;10.90;87.60
58363;DHT22;54977;51.510;7.522;2022-12-20T18:21:47;11.00;87.10
58363;DHT22;54977;51.510;7.522;2022-12-20T18:26:48;11.00;87.20
58363;DHT22;54977;51.510;7.522;2022-12-20T18:31:52;11.20;86.30
58363;DHT22;54977;51.510;7.522;2022-12-20T18:36:53;11.30;85.90
58363;DHT22;54977;51.510;7.522;2022-12-20T18:41:55;11.30;85.50
58363;DHT22;54977;51.510;7.522;2022-12-20T18:46:58;11.50;85.20
58363;DHT22;54977;51.510;7.522;2022-12-20T18:52:01;11.50;85.20
58363;DHT22;54977;51.510;7.522;2022-12-20T18:57:02;11.40;85.50
58363;DHT22;54977;51.510;7.522;2022-12-20T19:02:07;11.30;85.90
58363;DHT22;54977;51.510;7.522;2022-12-20T19:07:09;11.10;85.90
58363;DHT22;54977;51.510;7.522;2022-12-20T19:12:11;11.30;85.70
58363;DHT22;54977;51.510;7.522;2022-12-20T19:17:14;11.50;85.70
58363;DHT22;54977;51.510;7.522;2022-12-20T19:22:16;11.50;85.70
58363;DHT22;54977;51.510;7.522;2022-12-20T19:27:18;11.50;86.00
58363;DHT22;54977;51.510;7.522;2022-12-20T19:32:21;11.50;86.00
58363;DHT22;54977;51.510;7.522;2022-12-20T19:37:23;11.40;86.50
58363;DHT22;54977;51.510;7.522;2022-12-20T19:42:26;11.40;86.70
58363;DHT22;54977;51.510;7.522;2022-12-20T19:47:29;11.40;87.10
58363;DHT22;54977;51.510;7.522;2022-12-20T19:52:33;11.60;86.50
58363;DHT22;54977;51.510;7.522;2022-12-20T19:57:36;11.70;86.20
58363;DHT22;54977;51.510;7.522;2022-12-20T20:02:39;11.40;86.70
58363;DHT22;54977;51.510;7.522;2022-12-20T20:07:41;11.70;86.40
58363;DHT22;54977;51.510;7.522;2022-12-20T20:12:44;11.70;86.00
58363;DHT22;54977;51.510;7.522;2022-12-20T20:17:50;11.70;86.70
58363;DHT22;54977;51.510;7.522;2022-12-20T20:22:52;11.80;86.10
58363;DHT22;54977;51.510;7.522;2022-12-20T20:27:54;11.80;86.30
58363;DHT22;54977;51.510;7.522;2022-12-20T20:32:57;11.50;87.50
58363;DHT22;54977;51.510;7.522;2022-12-20T20:37:59;11.50;87.70
58363;DHT22;54977;51.510;7.522;2022-12-20T20:43:01;11.50;88.10
58363;DHT22;54977;51.510;7.522;2022-12-20T20:48:04;11.70;87.30
58363;DHT22;54977;51.510;7.522;2022-12-20T20:53:06;11.50;88.00
58363;DHT22;54977;51.510;7.522;2022-12-20T20:58:08;11.60;88.50
58363;DHT22;54977;51.510;7.522;2022-12-20T21:03:11;11.60;88.30
58363;DHT22;54977;51.510;7.522;2022-12-20T21:08:13;11.70;88.10
58363;DHT22;54977;51.510;7.522;2022-12-20T21:13:16;11.60;88.50
58363;DHT22;54977;51.510;7.522;2022-12-20T21:18:19;11.60;88.80
58363;DHT22;54977;51.510;7.522;2022-12-20T21:23:22;11.40;89.20
58363;DHT22;54977;51.510;7.522;2022-12-20T21:28:24;11.50;89.50
58363;DHT22;54977;51.510;7.522;2022-12-20T21:33:28;11.50;89.70
58363;DHT22;54977;51.510;7.522;2022-12-20T21:38:33;11.50;89.70
58363;DHT22;54977;51.510;7.522;2022-12-20T21:43:35;11.40;90.20
58363;DHT22;54977;51.510;7.522;2022-12-20T21:48:38;11.30;90.30
58363;DHT22;54977;51.510;7.522;2022-12-20T21:53:41;11.40;90.30
58363;DHT22;54977;51.510;7.522;2022-12-20T21:58:44;11.40;90.40
58363;DHT22;54977;51.510;7.522;2022-12-20T22:03:50;11.30;90.80
58363;DHT22;54977;51.510;7.522;2022-12-20T22:08:53;11.40;90.70
58363;DHT22;54977;51.510;7.522;2022-12-20T22:13:55;11.20;90.90
58363;DHT22;54977;51.510;7.522;2022-12-20T22:18:59;11.30;90.80
58363;DHT22;54977;51.510;7.522;2022-12-20T22:24:01;11.30;91.10
58363;DHT22;54977;51.510;7.522;2022-12-20T22:29:05;11.30;90.80
58363;DHT22;54977;51.510;7.522;2022-12-20T22:34:08;11.30;90.90
58363;DHT22;54977;51.510;7.522;2022-12-20T22:39:10;11.30;90.90
58363;DHT22;54977;51.510;7.522;2022-12-20T22:44:13;11.30;90.80
58363;DHT22;54977;51.510;7.522;2022-12-20T22:49:17;11.30;90.90
58363;DHT22;54977;51.510;7.522;2022-12-20T22:54:19;11.30;91.10
58363;DHT22;54977;51.510;7.522;2022-12-20T22:59:20;11.30;90.80
58363;DHT22;54977;51.510;7.522;2022-12-20T23:04:24;11.30;90.90
58363;DHT22;54977;51.510;7.522;2022-12-20T23:09:26;11.20;91.00
58363;DHT22;54977;51.510;7.522;2022-12-20T23:14:27;11.30;91.00
58363;DHT22;54977;51.510;7.522;2022-12-20T23:20:03;11.30;91.00
58363;DHT22;54977;51.510;7.522;2022-12-20T23:25:23;11.30;91.10
58363;DHT22;54977;51.510;7.522;2022-12-20T23:30:25;11.30;91.00
58363;DHT22;54977;51.510;7.522;2022-12-20T23:35:28;11.30;91.10
58363;DHT22;54977;51.510;7.522;2022-12-20T23:40:30;11.30;91.10
58363;DHT22;54977;51.510;7.522;2022-12-20T23:45:32;11.30;91.20
58363;DHT22;54977;51.510;7.522;2022-12-20T23:50:35;11.30;91.10
58363;DHT22;54977;51.510;7.522;2022-12-20T23:55:37;11.40;91.10
